createdAt,value
2022-08-23T00:00:45.760Z,53.55
2022-08-23T00:01:54.367Z,50.90
2022-08-23T00:02:57.155Z,53.20
2022-08-23T00:04:04.677Z,50.75
2022-08-23T00:05:08.995Z,53.05
2022-08-23T00:06:12.169Z,57.53
2022-08-23T00:07:15.817Z,51.17
2022-08-23T00:08:30.948Z,51.53
2022-08-23T00:09:34.406Z,49.83
2022-08-23T00:10:36.473Z,50.97
2022-08-23T00:12:15.794Z,49.92
2022-08-23T00:13:17.971Z,53.33
2022-08-23T00:14:25.140Z,50.58
2022-08-23T00:15:27.766Z,50.70
2022-08-23T00:16:30.039Z,52.83
2022-08-23T00:17:34.181Z,52.35
2022-08-23T00:18:37.254Z,57.08
2022-08-23T00:19:40.326Z,48.28
2022-08-23T00:20:43.084Z,50.85
2022-08-23T00:21:46.983Z,54.35
2022-08-23T00:22:49.164Z,53.35
2022-08-23T00:23:51.365Z,55.22
2022-08-23T00:24:53.657Z,50.33
2022-08-23T00:25:55.788Z,50.75
2022-08-23T00:27:05.208Z,52.50
2022-08-23T00:28:14.965Z,51.00
2022-08-23T00:29:17.571Z,49.55
2022-08-23T00:30:19.718Z,49.78
2022-08-23T00:31:22.197Z,48.55
2022-08-23T00:32:25.856Z,50.45
2022-08-23T00:33:28.177Z,50.05
2022-08-23T00:34:30.676Z,49.90
2022-08-23T00:35:33.688Z,50.33
2022-08-23T00:36:36.335Z,51.42
2022-08-23T00:37:39.309Z,49.33
2022-08-23T00:38:42.289Z,48.00
2022-08-23T00:39:45.311Z,46.20
2022-08-23T00:40:51.364Z,53.47
2022-08-23T00:41:59.241Z,46.88
2022-08-23T00:43:26.887Z,49.10
2022-08-23T00:45:12.495Z,49.33
2022-08-23T00:46:49.847Z,53.92
2022-08-23T00:47:52.188Z,47.95
2022-08-23T00:48:55.851Z,47.05
2022-08-23T00:50:23.640Z,48.80
2022-08-23T00:51:52.287Z,48.83
2022-08-23T00:53:12.484Z,50.60
2022-08-23T00:54:17.301Z,50.47
2022-08-23T00:55:21.504Z,46.45
2022-08-23T00:56:26.321Z,49.83
2022-08-23T00:57:34.319Z,45.60
2022-08-23T00:58:36.588Z,50.53
2022-08-23T00:59:39.566Z,52.72
2022-08-23T01:00:42.202Z,46.70
2022-08-23T01:01:44.423Z,48.50
2022-08-23T01:02:51.250Z,52.72
2022-08-23T01:04:04.318Z,48.40
2022-08-23T01:05:08.368Z,47.40
2022-08-23T01:06:34.388Z,47.50
2022-08-23T01:07:53.397Z,50.30
2022-08-23T01:09:02.455Z,54.17
2022-08-23T01:10:20.020Z,51.10
2022-08-23T01:11:41.281Z,48.38
2022-08-23T01:12:51.079Z,46.58
2022-08-23T01:13:58.699Z,49.33
2022-08-23T01:15:15.866Z,52.00
2022-08-23T01:16:34.252Z,51.80
2022-08-23T01:17:46.520Z,50.42
2022-08-23T01:18:49.797Z,53.58
2022-08-23T01:19:59.623Z,50.17
2022-08-23T01:21:13.816Z,48.30
2022-08-23T01:22:47.995Z,48.10
2022-08-23T01:23:55.836Z,53.88
2022-08-23T01:25:07.439Z,48.72
2022-08-23T01:26:21.724Z,47.97
2022-08-23T01:27:25.267Z,48.70
2022-08-23T01:28:27.703Z,50.88
2022-08-23T01:29:30.012Z,50.22
2022-08-23T01:30:34.620Z,53.40
2022-08-23T01:31:37.943Z,51.15
2022-08-23T01:32:46.028Z,53.78
2022-08-23T01:33:56.621Z,49.00
2022-08-23T01:34:59.148Z,48.95
2022-08-23T01:36:02.441Z,51.40
2022-08-23T01:37:10.222Z,53.03
2022-08-23T01:38:13.766Z,46.60
2022-08-23T01:39:16.994Z,51.03
2022-08-23T01:40:19.388Z,50.65
2022-08-23T01:41:24.178Z,47.35
2022-08-23T01:42:26.465Z,47.63
2022-08-23T01:43:29.115Z,50.47
2022-08-23T01:44:31.845Z,48.40
2022-08-23T01:45:35.136Z,51.15
2022-08-23T01:46:38.146Z,52.08
2022-08-23T01:47:42.957Z,48.38
2022-08-23T01:48:47.097Z,50.47
2022-08-23T01:49:50.293Z,42.67
2022-08-23T01:50:52.504Z,50.38
2022-08-23T01:51:56.314Z,47.70
2022-08-23T01:52:59.990Z,46.47
2022-08-23T01:54:04.813Z,49.05
2022-08-23T01:55:07.890Z,47.30
2022-08-23T01:56:15.472Z,46.17
2022-08-23T01:57:17.966Z,44.40
2022-08-23T01:58:20.912Z,48.10
2022-08-23T01:59:24.421Z,47.08
2022-08-23T02:00:33.252Z,50.33
2022-08-23T02:01:35.661Z,56.92
2022-08-23T02:02:38.830Z,47.10
2022-08-23T02:03:42.142Z,50.97
2022-08-23T02:04:44.403Z,51.47
2022-08-23T02:05:47.001Z,48.63
2022-08-23T02:06:49.821Z,51.40
2022-08-23T02:07:57.437Z,46.90
2022-08-23T02:09:04.808Z,48.45
2022-08-23T02:10:11.485Z,51.85
2022-08-23T02:11:17.828Z,45.03
2022-08-23T02:12:22.442Z,45.15
2022-08-23T02:13:27.978Z,47.08
2022-08-23T02:14:33.293Z,50.05
2022-08-23T02:15:36.907Z,44.47
2022-08-23T02:16:58.046Z,48.38
2022-08-23T02:19:12.559Z,48.30
2022-08-23T02:20:15.367Z,53.03
2022-08-23T02:21:19.467Z,46.78
2022-08-23T02:22:22.745Z,47.35
2022-08-23T02:23:25.185Z,44.65
2022-08-23T02:24:27.956Z,46.95
2022-08-23T02:25:31.341Z,47.42
2022-08-23T02:26:38.532Z,44.03
2022-08-23T02:27:43.914Z,49.33
2022-08-23T02:28:51.943Z,48.97
2022-08-23T02:29:59.602Z,45.63
2022-08-23T02:31:05.889Z,51.30
2022-08-23T02:32:13.065Z,48.78
2022-08-23T02:33:16.443Z,55.00
2022-08-23T02:34:20.785Z,50.30
2022-08-23T02:35:24.651Z,44.03
2022-08-23T02:36:28.340Z,42.92
2022-08-23T02:37:31.728Z,45.70
2022-08-23T02:38:36.235Z,50.17
2022-08-23T02:39:39.722Z,42.92
2022-08-23T02:40:42.984Z,42.08
2022-08-23T02:41:50.361Z,44.95
2022-08-23T02:42:53.775Z,43.72
2022-08-23T02:43:57.370Z,47.30
2022-08-23T02:44:59.762Z,41.80
2022-08-23T02:46:03.460Z,43.97
2022-08-23T02:47:07.957Z,46.83
2022-08-23T02:48:12.061Z,48.85
2022-08-23T02:49:26.661Z,48.67
2022-08-23T02:50:28.863Z,46.63
2022-08-23T02:51:31.223Z,47.53
2022-08-23T02:52:34.303Z,45.10
2022-08-23T02:53:37.369Z,43.08
2022-08-23T02:54:42.813Z,46.80
2022-08-23T02:55:47.036Z,40.72
2022-08-23T02:56:49.543Z,48.83
2022-08-23T02:57:52.039Z,46.85
2022-08-23T02:58:54.970Z,45.55
2022-08-23T02:59:58.729Z,43.85
2022-08-23T03:01:01.488Z,46.92
2022-08-23T03:02:08.824Z,48.15
2022-08-23T03:03:15.225Z,44.28
2022-08-23T03:04:17.889Z,43.72
2022-08-23T03:05:20.361Z,45.30
2022-08-23T03:06:25.783Z,43.15
2022-08-23T03:07:28.657Z,46.33
2022-08-23T03:08:33.821Z,42.28
2022-08-23T03:09:36.836Z,41.20
2022-08-23T03:10:43.933Z,44.63
2022-08-23T03:11:48.650Z,42.63
2022-08-23T03:12:51.960Z,47.75
2022-08-23T03:13:56.723Z,44.20
2022-08-23T03:15:00.077Z,40.28
2022-08-23T03:16:02.889Z,47.28
2022-08-23T03:17:07.388Z,44.90
2022-08-23T03:18:13.244Z,42.70
2022-08-23T03:19:15.887Z,46.50
2022-08-23T03:20:18.543Z,44.13
2022-08-23T03:21:22.880Z,42.60
2022-08-23T03:22:25.658Z,44.75
2022-08-23T03:23:29.578Z,41.65
2022-08-23T03:24:31.955Z,42.38
2022-08-23T03:25:36.529Z,41.40
2022-08-23T03:27:02.935Z,37.75
2022-08-23T03:28:07.223Z,44.50
2022-08-23T03:29:14.181Z,45.22
2022-08-23T03:30:37.288Z,46.38
2022-08-23T03:31:41.741Z,50.58
2022-08-23T03:32:48.874Z,46.28
2022-08-23T03:33:52.941Z,46.40
2022-08-23T03:34:55.745Z,46.20
2022-08-23T03:36:00.930Z,47.47
2022-08-23T03:37:07.766Z,46.30
2022-08-23T03:38:12.208Z,42.78
2022-08-23T03:39:16.123Z,46.53
2022-08-23T03:40:21.270Z,40.95
2022-08-23T03:41:25.997Z,47.15
2022-08-23T03:42:30.930Z,44.33
2022-08-23T03:43:34.127Z,40.95
2022-08-23T03:44:38.657Z,45.58
2022-08-23T03:45:41.765Z,46.22
2022-08-23T03:46:46.975Z,41.65
2022-08-23T03:47:50.868Z,43.67
2022-08-23T03:49:02.195Z,42.25
2022-08-23T03:50:15.049Z,43.95
2022-08-23T03:51:21.169Z,43.33
2022-08-23T03:52:36.573Z,44.97
2022-08-23T03:53:39.166Z,51.20
2022-08-23T03:54:46.823Z,46.05
2022-08-23T03:55:57.299Z,47.03
2022-08-23T03:57:05.805Z,41.47
2022-08-23T03:59:31.737Z,48.90
2022-08-23T04:00:36.094Z,45.35
2022-08-23T04:01:42.304Z,39.70
2022-08-23T04:08:00.048Z,42.50
2022-08-23T04:09:12.191Z,44.22
2022-08-23T04:10:16.306Z,44.00
2022-08-23T04:11:22.886Z,45.53
2022-08-23T04:12:32.892Z,44.70
2022-08-23T04:13:43.367Z,40.47
2022-08-23T04:16:22.082Z,47.83
2022-08-23T04:17:37.467Z,46.78
2022-08-23T04:18:41.144Z,40.75
2022-08-23T04:20:10.211Z,42.22
2022-08-23T04:21:25.288Z,45.38
2022-08-23T04:22:27.673Z,44.83
2022-08-23T04:23:35.793Z,43.63
2022-08-23T04:24:56.277Z,45.30
2022-08-23T04:25:59.191Z,48.35
2022-08-23T04:27:07.409Z,45.75
2022-08-23T04:28:11.462Z,44.00
2022-08-23T04:29:24.847Z,46.28
2022-08-23T04:30:39.407Z,42.97
2022-08-23T04:31:44.132Z,43.60
2022-08-23T04:32:51.689Z,44.58
2022-08-23T04:33:56.687Z,45.10
2022-08-23T04:34:59.989Z,39.88
2022-08-23T04:36:04.898Z,46.08
2022-08-23T04:37:09.363Z,47.92
2022-08-23T04:38:24.677Z,44.55
2022-08-23T04:39:32.809Z,39.25
2022-08-23T04:40:56.783Z,43.22
2022-08-23T04:42:18.000Z,46.28
2022-08-23T04:43:22.102Z,41.35
2022-08-23T04:44:26.291Z,44.70
2022-08-23T04:45:30.302Z,46.88
2022-08-23T04:46:32.846Z,43.33
2022-08-23T04:47:39.473Z,46.03
2022-08-23T04:48:46.305Z,42.38
2022-08-23T04:49:50.487Z,41.28
2022-08-23T04:50:53.679Z,48.08
2022-08-23T04:53:39.137Z,43.15
2022-08-23T04:55:01.688Z,47.88
2022-08-23T04:56:25.540Z,43.15
2022-08-23T04:57:30.878Z,46.00
2022-08-23T04:59:54.356Z,45.35
2022-08-23T05:01:01.187Z,48.25
2022-08-23T05:02:05.991Z,42.25
2022-08-23T05:03:10.519Z,48.25
2022-08-23T05:04:19.765Z,45.85
2022-08-23T05:05:29.669Z,43.45
2022-08-23T05:06:32.960Z,41.17
2022-08-23T05:07:42.670Z,42.67
2022-08-23T05:09:49.790Z,39.40
2022-08-23T05:10:54.216Z,41.95
2022-08-23T05:11:56.745Z,41.33
2022-08-23T05:13:00.555Z,38.53
2022-08-23T05:14:02.939Z,42.67
2022-08-23T05:15:07.967Z,39.47
2022-08-23T05:16:10.929Z,41.25
2022-08-23T05:17:19.249Z,39.85
2022-08-23T05:18:22.999Z,43.63
2022-08-23T05:19:27.438Z,45.72
2022-08-23T05:20:30.235Z,41.65
2022-08-23T05:21:32.496Z,40.95
2022-08-23T05:22:41.295Z,44.15
2022-08-23T05:24:18.304Z,40.00
2022-08-23T05:25:23.037Z,38.10
2022-08-23T05:26:28.323Z,38.80
2022-08-23T05:27:30.854Z,40.15
2022-08-23T05:28:35.047Z,44.60
2022-08-23T05:29:38.670Z,44.15
2022-08-23T05:30:41.103Z,46.33
2022-08-23T05:31:50.137Z,45.00
2022-08-23T05:32:53.618Z,41.92
2022-08-23T05:33:57.570Z,36.00
2022-08-23T05:35:07.655Z,41.15
2022-08-23T05:36:17.211Z,43.65
2022-08-23T05:37:19.645Z,47.92
2022-08-23T05:38:24.571Z,38.92
2022-08-23T05:39:36.130Z,44.20
2022-08-23T05:40:42.608Z,37.75
2022-08-23T05:41:48.249Z,38.88
2022-08-23T05:42:51.217Z,48.00
2022-08-23T05:44:14.799Z,43.05
2022-08-23T05:45:21.886Z,42.28
2022-08-23T05:46:28.453Z,43.00
2022-08-23T05:48:04.690Z,44.70
2022-08-23T05:49:28.532Z,38.22
2022-08-23T05:50:37.660Z,42.58
2022-08-23T05:54:07.582Z,49.78
2022-08-23T05:55:09.781Z,41.33
2022-08-23T05:56:42.756Z,40.53
2022-08-23T05:58:59.127Z,36.95
2022-08-23T06:00:03.144Z,39.67
2022-08-23T06:01:06.941Z,36.42
2022-08-23T06:02:10.126Z,45.63
2022-08-23T06:03:12.258Z,42.65
2022-08-23T06:04:16.242Z,38.88
2022-08-23T06:05:26.571Z,37.03
2022-08-23T06:07:00.961Z,45.13
2022-08-23T06:08:41.699Z,45.53
2022-08-23T06:09:49.192Z,41.28
2022-08-23T06:11:08.944Z,44.03
2022-08-23T06:12:16.608Z,36.22
2022-08-23T06:13:19.724Z,39.58
2022-08-23T06:14:21.980Z,41.45
2022-08-23T06:15:24.735Z,39.58
2022-08-23T06:16:36.991Z,40.60
2022-08-23T06:17:39.750Z,37.58
2022-08-23T06:18:42.887Z,38.97
2022-08-23T06:20:03.947Z,42.25
2022-08-23T06:21:16.845Z,37.60
2022-08-23T06:22:25.044Z,35.75
2022-08-23T06:23:29.433Z,31.40
2022-08-23T06:24:31.861Z,40.97
2022-08-23T06:25:41.129Z,32.58
2022-08-23T06:26:49.266Z,31.15
2022-08-23T06:27:52.748Z,33.70
2022-08-23T06:28:57.242Z,32.45
2022-08-23T06:30:02.402Z,29.13
2022-08-23T06:31:05.737Z,30.90
2022-08-23T06:32:11.169Z,25.88
2022-08-23T06:33:21.009Z,31.30
2022-08-23T06:34:46.631Z,28.50
2022-08-23T06:36:18.946Z,29.25
2022-08-23T06:37:50.465Z,24.95
2022-08-23T06:39:12.709Z,25.15
2022-08-23T06:40:35.511Z,24.38
2022-08-23T06:42:05.450Z,29.00
2022-08-23T06:43:18.801Z,23.80
2022-08-23T06:44:30.466Z,30.42
2022-08-23T06:45:55.131Z,20.27
2022-08-23T06:47:01.275Z,22.63
2022-08-23T06:48:41.786Z,27.67
2022-08-23T06:49:50.921Z,23.83
2022-08-23T06:51:26.734Z,21.10
2022-08-23T06:52:48.822Z,24.85
2022-08-23T06:54:02.916Z,20.45
2022-08-23T06:56:51.649Z,22.13
2022-08-23T06:57:57.751Z,20.80
2022-08-23T06:59:17.662Z,19.33
2022-08-23T07:00:57.498Z,22.70
2022-08-23T07:02:09.981Z,24.10
2022-08-23T07:03:32.363Z,26.30
2022-08-23T07:04:57.214Z,21.80
2022-08-23T07:06:27.360Z,23.23
2022-08-23T07:07:37.586Z,28.88
2022-08-23T07:08:44.474Z,23.55
2022-08-23T07:09:54.849Z,26.90
2022-08-23T07:10:57.689Z,21.63
2022-08-23T07:12:01.786Z,22.05
2022-08-23T07:13:05.550Z,24.35
2022-08-23T07:14:11.408Z,21.50
2022-08-23T07:15:13.992Z,22.48
2022-08-23T07:16:26.102Z,25.90
2022-08-23T07:17:28.361Z,21.08
2022-08-23T07:18:33.350Z,21.55
2022-08-23T07:19:36.286Z,20.10
2022-08-23T07:20:39.061Z,20.80
2022-08-23T07:21:42.014Z,23.08
2022-08-23T07:22:44.734Z,19.48
2022-08-23T07:23:47.611Z,20.35
2022-08-23T07:24:50.276Z,21.45
2022-08-23T07:25:53.556Z,21.50
2022-08-23T07:26:59.109Z,21.35
2022-08-23T07:28:02.390Z,22.48
2022-08-23T07:29:06.605Z,21.00
2022-08-23T07:30:09.367Z,19.65
2022-08-23T07:31:27.572Z,21.48
2022-08-23T07:32:29.863Z,20.60
2022-08-23T07:33:53.830Z,18.17
2022-08-23T07:34:57.435Z,17.83
2022-08-23T07:36:00.322Z,22.55
2022-08-23T07:37:04.461Z,17.70
2022-08-23T07:38:16.088Z,17.60
2022-08-23T07:39:21.016Z,21.20
2022-08-23T07:40:23.305Z,18.80
2022-08-23T07:41:36.091Z,21.08
2022-08-23T07:42:40.367Z,29.90
2022-08-23T07:43:43.056Z,18.58
2022-08-23T07:44:46.223Z,21.30
2022-08-23T07:45:49.407Z,19.17
2022-08-23T07:46:55.462Z,21.98
2022-08-23T07:47:57.825Z,18.73
2022-08-23T07:49:01.922Z,19.38
2022-08-23T07:50:13.095Z,22.25
2022-08-23T07:51:15.684Z,20.80
2022-08-23T07:52:18.691Z,20.13
2022-08-23T07:53:37.447Z,22.88
2022-08-23T07:54:41.562Z,17.27
2022-08-23T07:56:05.488Z,18.27
2022-08-23T07:57:27.586Z,16.35
2022-08-23T07:58:48.676Z,16.77
2022-08-23T08:00:09.451Z,19.65
2022-08-23T08:01:34.624Z,23.08
2022-08-23T08:02:36.885Z,19.75
2022-08-23T08:03:40.320Z,16.48
2022-08-23T08:04:49.734Z,20.77
2022-08-23T08:05:52.374Z,17.30
2022-08-23T08:07:16.973Z,19.27
2022-08-23T08:08:19.362Z,20.15
2022-08-23T08:09:22.711Z,18.35
2022-08-23T08:10:25.617Z,23.40
2022-08-23T08:11:34.467Z,15.90
2022-08-23T08:12:38.320Z,20.13
2022-08-23T08:13:52.196Z,16.70
2022-08-23T08:14:55.447Z,18.08
2022-08-23T08:16:05.515Z,15.90
2022-08-23T08:17:09.797Z,20.83
2022-08-23T08:18:40.000Z,17.52
2022-08-23T08:20:21.968Z,16.60
2022-08-23T08:21:42.498Z,16.83
2022-08-23T08:23:04.088Z,20.50
2022-08-23T08:24:26.378Z,23.33
2022-08-23T08:25:34.464Z,21.65
2022-08-23T08:26:41.687Z,24.98
2022-08-23T08:27:43.971Z,19.10
2022-08-23T08:28:46.127Z,18.30
2022-08-23T08:29:48.196Z,17.83
2022-08-23T08:30:50.224Z,21.30
2022-08-23T08:31:54.281Z,18.52
2022-08-23T08:32:57.006Z,19.92
2022-08-23T08:33:59.362Z,19.02
2022-08-23T08:35:03.724Z,21.38
2022-08-23T08:36:07.528Z,19.73
2022-08-23T08:37:09.991Z,17.65
2022-08-23T08:38:11.996Z,18.33
2022-08-23T08:39:22.044Z,19.50
2022-08-23T08:40:31.659Z,19.33
2022-08-23T08:42:18.277Z,22.73
2022-08-23T08:43:42.425Z,19.88
2022-08-23T08:44:59.033Z,21.00
2022-08-23T08:46:22.056Z,20.70
2022-08-23T08:47:54.744Z,19.10
2022-08-23T08:49:02.158Z,20.45
2022-08-23T08:50:33.764Z,16.55
2022-08-23T08:51:48.938Z,17.83
2022-08-23T08:52:54.269Z,23.10
2022-08-23T08:54:17.623Z,19.05
2022-08-23T08:55:39.046Z,18.50
2022-08-23T08:56:43.007Z,22.83
2022-08-23T08:57:55.443Z,20.17
2022-08-23T08:59:02.782Z,18.17
2022-08-23T09:00:10.756Z,21.65
2022-08-23T09:01:20.222Z,25.52
2022-08-23T09:02:32.628Z,20.55
2022-08-23T09:03:40.652Z,21.73
2022-08-23T09:04:46.372Z,22.13
2022-08-23T09:06:04.490Z,20.67
2022-08-23T09:07:31.280Z,21.83
2022-08-23T09:10:03.781Z,19.75
2022-08-23T09:11:20.817Z,25.88
2022-08-23T09:12:38.028Z,20.65
2022-08-23T09:13:46.248Z,21.80
2022-08-23T09:15:15.735Z,22.85
2022-08-23T09:16:50.750Z,19.85
2022-08-23T09:17:57.286Z,22.77
2022-08-23T09:19:02.498Z,24.80
2022-08-23T09:20:06.575Z,21.10
2022-08-23T09:21:10.305Z,23.27
2022-08-23T09:22:17.487Z,21.85
2022-08-23T09:23:29.786Z,25.00
2022-08-23T09:24:32.793Z,25.40
2022-08-23T09:25:57.889Z,25.92
2022-08-23T09:27:09.657Z,18.73
2022-08-23T09:28:14.463Z,25.52
2022-08-23T09:29:25.448Z,25.75
2022-08-23T09:30:55.102Z,28.70
2022-08-23T09:32:06.420Z,24.42
2022-08-23T09:33:21.581Z,24.83
2022-08-23T09:34:36.007Z,23.63
2022-08-23T09:36:02.258Z,20.25
2022-08-23T09:37:23.128Z,24.33
2022-08-23T09:38:27.178Z,22.70
2022-08-23T09:39:37.602Z,23.83
2022-08-23T09:40:51.591Z,18.67
2022-08-23T09:41:54.096Z,20.98
2022-08-23T09:43:13.498Z,20.65
2022-08-23T09:44:36.686Z,23.38
2022-08-23T09:45:55.761Z,22.90
2022-08-23T09:47:07.719Z,23.80
2022-08-23T09:48:14.815Z,18.70
2022-08-23T09:49:30.668Z,23.15
2022-08-23T09:50:51.023Z,31.38
2022-08-23T09:51:56.056Z,25.90
2022-08-23T09:53:05.196Z,21.83
2022-08-23T09:54:19.247Z,21.15
2022-08-23T09:55:32.681Z,22.70
2022-08-23T09:56:41.360Z,21.80
2022-08-23T09:57:48.636Z,18.60
2022-08-23T09:58:54.647Z,19.10
2022-08-23T10:00:29.122Z,19.02
2022-08-23T10:01:39.304Z,16.48
2022-08-23T10:02:47.393Z,16.02
2022-08-23T10:04:14.676Z,18.67
2022-08-23T10:05:30.155Z,17.58
2022-08-23T10:06:34.396Z,15.57
2022-08-23T10:07:52.207Z,18.67
2022-08-23T10:08:58.549Z,21.50
2022-08-23T10:10:24.816Z,21.03
2022-08-23T10:11:33.472Z,20.33
2022-08-23T10:12:36.602Z,21.83
2022-08-23T10:13:42.149Z,18.55
2022-08-23T10:14:45.144Z,23.08
2022-08-23T10:16:23.646Z,15.20
2022-08-23T10:17:59.761Z,17.77
2022-08-23T10:19:18.307Z,16.88
2022-08-23T10:20:28.211Z,17.42
2022-08-23T10:21:52.247Z,16.77
2022-08-23T10:23:09.418Z,22.60
2022-08-23T10:24:45.182Z,15.10
2022-08-23T10:26:01.584Z,14.65
2022-08-23T10:27:30.457Z,20.95
2022-08-23T10:29:13.260Z,15.43
2022-08-23T10:30:26.895Z,16.23
2022-08-23T10:31:41.448Z,17.42
2022-08-23T10:33:14.350Z,18.73
2022-08-23T10:35:39.223Z,16.85
2022-08-23T10:37:05.942Z,17.42
2022-08-23T10:38:28.816Z,20.27
2022-08-23T10:39:33.841Z,20.73
2022-08-23T10:41:04.515Z,17.33
2022-08-23T10:42:31.870Z,17.60
2022-08-23T10:43:40.516Z,15.27
2022-08-23T10:44:59.246Z,15.90
2022-08-23T10:46:03.066Z,20.27
2022-08-23T10:47:38.053Z,19.50
2022-08-23T10:48:57.154Z,15.00
2022-08-23T10:50:08.281Z,14.32
2022-08-23T10:52:40.702Z,16.45
2022-08-23T10:53:57.092Z,13.55
2022-08-23T10:55:17.432Z,18.48
2022-08-23T10:56:22.025Z,16.70
2022-08-23T10:57:40.508Z,17.83
2022-08-23T10:58:54.545Z,14.00
2022-08-23T10:59:59.330Z,17.70
2022-08-23T11:01:03.291Z,13.63
2022-08-23T11:02:33.422Z,16.75
2022-08-23T11:04:01.636Z,14.10
2022-08-23T11:05:33.841Z,14.57
2022-08-23T11:06:49.776Z,14.20
2022-08-23T11:08:05.275Z,14.52
2022-08-23T11:09:30.446Z,11.98
2022-08-23T11:10:53.746Z,13.45
2022-08-23T11:12:22.091Z,14.65
2022-08-23T11:13:28.933Z,12.90
2022-08-23T11:14:30.951Z,17.70
2022-08-23T11:16:01.216Z,15.48
2022-08-23T11:17:11.033Z,13.27
2022-08-23T11:18:34.319Z,13.52
2022-08-23T11:19:52.744Z,16.80
2022-08-23T11:21:07.842Z,13.18
2022-08-23T11:22:26.290Z,15.63
2022-08-23T11:23:41.865Z,18.10
2022-08-23T11:25:04.283Z,11.68
2022-08-23T11:26:22.877Z,12.25
2022-08-23T11:27:31.894Z,11.02
2022-08-23T11:28:44.605Z,15.65
2022-08-23T11:29:47.366Z,10.88
2022-08-23T11:31:35.139Z,16.75
2022-08-23T11:32:42.854Z,14.70
2022-08-23T11:33:53.850Z,14.13
2022-08-23T11:35:09.112Z,13.52
2022-08-23T11:36:22.013Z,12.27
2022-08-23T11:37:28.743Z,12.93
2022-08-23T11:39:01.793Z,13.38
2022-08-23T11:40:08.762Z,15.13
2022-08-23T11:41:37.238Z,12.88
2022-08-23T11:42:39.315Z,11.75
2022-08-23T11:43:46.448Z,15.98
2022-08-23T11:44:49.930Z,16.65
2022-08-23T11:45:53.763Z,14.73
2022-08-23T11:47:03.474Z,15.98
2022-08-23T11:48:37.402Z,15.80
2022-08-23T11:50:03.002Z,17.63
2022-08-23T11:51:18.741Z,11.40
2022-08-23T11:52:32.953Z,13.85
2022-08-23T11:54:07.535Z,14.50
2022-08-23T11:55:12.394Z,11.05
2022-08-23T11:56:35.544Z,12.90
2022-08-23T11:58:26.782Z,11.05
2022-08-23T11:59:55.087Z,14.90
2022-08-23T12:01:08.200Z,14.05
2022-08-23T12:02:38.225Z,14.55
2022-08-23T12:04:00.232Z,11.95
2022-08-23T12:05:20.467Z,15.57
2022-08-23T12:06:42.749Z,15.85
2022-08-23T12:08:01.240Z,13.23
2022-08-23T12:09:13.779Z,11.30
2022-08-23T12:10:37.292Z,12.05
2022-08-23T12:12:02.443Z,15.00
2022-08-23T12:13:28.138Z,12.10
2022-08-23T12:14:32.987Z,15.88
2022-08-23T12:16:06.258Z,14.00
2022-08-23T12:17:19.225Z,11.45
2022-08-23T12:18:24.996Z,11.18
2022-08-23T12:19:49.474Z,13.50
2022-08-23T12:20:59.323Z,12.68
2022-08-23T12:22:19.003Z,14.38
2022-08-23T12:23:21.762Z,10.70
2022-08-23T12:24:40.214Z,10.88
2022-08-23T12:25:43.022Z,11.40
2022-08-23T12:26:59.294Z,11.57
2022-08-23T12:28:12.006Z,11.18
2022-08-23T12:29:26.583Z,10.73
2022-08-23T12:30:50.591Z,10.95
2022-08-23T12:32:31.351Z,12.05
2022-08-23T12:33:33.589Z,10.15
2022-08-23T12:34:45.291Z,12.38
2022-08-23T12:36:15.466Z,10.50
2022-08-23T12:38:00.619Z,13.55
2022-08-23T12:39:20.065Z,14.00
2022-08-23T12:40:30.248Z,11.90
2022-08-23T12:41:55.966Z,10.27
2022-08-23T12:43:22.255Z,14.45
2022-08-23T12:44:29.699Z,11.25
2022-08-23T12:45:40.082Z,11.15
2022-08-23T12:46:45.142Z,12.30
2022-08-23T12:47:58.459Z,12.30
2022-08-23T12:49:02.061Z,12.55
2022-08-23T12:50:26.093Z,10.13
2022-08-23T12:51:48.975Z,9.73
2022-08-23T12:53:03.418Z,12.70
2022-08-23T12:54:17.480Z,12.18
2022-08-23T12:55:20.631Z,10.85
2022-08-23T12:56:28.166Z,9.50
2022-08-23T12:57:37.708Z,9.73
2022-08-23T12:58:46.053Z,11.07
2022-08-23T13:00:18.763Z,11.52
2022-08-23T13:01:35.814Z,10.88
2022-08-23T13:02:39.570Z,15.15
2022-08-23T13:03:47.504Z,10.95
2022-08-23T13:04:51.195Z,13.38
2022-08-23T13:05:53.222Z,12.48
2022-08-23T13:07:04.624Z,12.98
2022-08-23T13:08:11.703Z,13.07
2022-08-23T13:09:17.221Z,14.18
2022-08-23T13:10:19.598Z,11.43
2022-08-23T13:11:25.999Z,11.63
2022-08-23T13:12:28.495Z,12.07
2022-08-23T13:13:31.432Z,12.23
2022-08-23T13:14:44.830Z,10.52
2022-08-23T13:15:51.915Z,12.77
2022-08-23T13:16:55.690Z,12.93
2022-08-23T13:18:02.595Z,10.02
2022-08-23T13:19:32.255Z,10.35
2022-08-23T13:20:34.623Z,11.88
2022-08-23T13:21:39.963Z,12.52
2022-08-23T13:23:00.508Z,15.50
2022-08-23T13:24:37.829Z,11.63
2022-08-23T13:25:43.038Z,11.75
2022-08-23T13:26:47.287Z,13.98
2022-08-23T13:27:49.395Z,10.15
2022-08-23T13:29:22.988Z,13.00
2022-08-23T13:30:30.083Z,10.15
2022-08-23T13:32:04.095Z,12.52
2022-08-23T13:33:10.610Z,13.93
2022-08-23T13:34:34.719Z,10.93
2022-08-23T13:35:40.695Z,11.07
2022-08-23T13:36:44.672Z,10.55
2022-08-23T13:37:47.468Z,13.98
2022-08-23T13:38:50.231Z,14.45
2022-08-23T13:39:59.404Z,14.25
2022-08-23T13:41:01.519Z,10.02
2022-08-23T13:42:04.175Z,12.13
2022-08-23T13:43:10.068Z,12.10
2022-08-23T13:44:16.957Z,10.68
2022-08-23T13:46:28.852Z,12.30
2022-08-23T13:47:31.488Z,13.80
2022-08-23T13:48:52.399Z,13.60
2022-08-23T13:49:56.056Z,17.33
2022-08-23T13:51:39.851Z,13.70
2022-08-23T13:53:03.131Z,12.65
2022-08-23T13:54:10.651Z,13.80
2022-08-23T13:56:15.745Z,14.23
2022-08-23T13:57:21.743Z,14.05
2022-08-23T13:58:30.668Z,13.27
2022-08-23T13:59:36.493Z,12.02
2022-08-23T14:00:38.874Z,11.27
2022-08-23T14:01:48.078Z,12.35
2022-08-23T14:02:50.977Z,15.43
2022-08-23T14:03:53.264Z,24.45
2022-08-23T14:04:55.664Z,13.32
2022-08-23T14:05:58.201Z,12.68
2022-08-23T14:07:00.748Z,16.25
2022-08-23T14:08:02.982Z,13.90
2022-08-23T14:09:06.777Z,15.55
2022-08-23T14:10:09.603Z,15.45
2022-08-23T14:11:16.028Z,14.77
2022-08-23T14:12:22.037Z,10.77
2022-08-23T14:13:28.189Z,12.35
2022-08-23T14:14:33.248Z,13.98
2022-08-23T14:17:02.101Z,14.27
2022-08-23T14:18:04.827Z,13.93
2022-08-23T14:19:19.172Z,12.60
2022-08-23T14:20:43.138Z,12.43
2022-08-23T14:21:47.005Z,10.63
2022-08-23T14:22:49.389Z,10.73
2022-08-23T14:23:51.823Z,12.52
2022-08-23T14:24:53.928Z,10.23
2022-08-23T14:25:58.315Z,14.27
2022-08-23T14:27:02.137Z,13.70
2022-08-23T14:28:04.452Z,16.83
2022-08-23T14:29:06.636Z,13.40
2022-08-23T14:30:31.301Z,15.20
2022-08-23T14:31:33.589Z,14.25
2022-08-23T14:32:35.808Z,15.95
2022-08-23T14:33:39.943Z,17.13
2022-08-23T14:34:42.219Z,10.75
2022-08-23T14:35:45.135Z,13.38
2022-08-23T14:38:15.445Z,13.88
2022-08-23T14:39:18.027Z,15.95
2022-08-23T14:40:20.728Z,10.68
2022-08-23T14:41:26.994Z,12.27
2022-08-23T14:42:29.170Z,11.27
2022-08-23T14:43:32.259Z,14.18
2022-08-23T14:44:36.277Z,12.68
2022-08-23T14:45:39.021Z,13.85
2022-08-23T14:46:41.269Z,13.38
2022-08-23T14:47:45.989Z,10.88
2022-08-23T14:48:48.778Z,14.32
2022-08-23T14:49:53.914Z,10.50
2022-08-23T14:50:56.949Z,12.05
2022-08-23T14:52:02.805Z,10.75
2022-08-23T14:53:06.773Z,16.10
2022-08-23T14:54:15.295Z,19.67
2022-08-23T14:55:17.464Z,13.32
2022-08-23T14:56:21.759Z,14.20
2022-08-23T14:57:24.228Z,18.83
2022-08-23T14:58:26.402Z,11.35
2022-08-23T14:59:28.812Z,12.30
2022-08-23T15:00:33.181Z,12.45
2022-08-23T15:01:37.142Z,10.95
2022-08-23T15:02:42.185Z,12.30
2022-08-23T15:03:45.426Z,13.32
2022-08-23T15:04:48.144Z,14.20
2022-08-23T15:05:50.512Z,10.13
2022-08-23T15:07:16.780Z,15.98
2022-08-23T15:08:15.919Z,13.93
2022-08-23T15:09:18.353Z,13.38
2022-08-23T15:13:21.657Z,18.77
2022-08-23T15:14:28.236Z,14.00
2022-08-23T15:15:30.820Z,22.15
2022-08-23T15:16:33.801Z,13.57
2022-08-23T15:17:38.673Z,11.95
2022-08-23T15:18:48.165Z,19.05
2022-08-23T15:19:50.284Z,17.90
2022-08-23T15:20:52.684Z,15.95
2022-08-23T15:21:54.866Z,18.65
2022-08-23T15:22:57.463Z,13.18
2022-08-23T15:23:59.909Z,17.85
2022-08-23T15:25:04.780Z,16.20
2022-08-23T15:26:08.209Z,15.73
2022-08-23T15:27:10.819Z,16.08
2022-08-23T15:28:17.082Z,21.38
2022-08-23T15:29:20.531Z,46.90
2022-08-23T15:30:24.042Z,18.58
2022-08-23T15:31:26.609Z,15.35
2022-08-23T15:32:29.045Z,23.38
2022-08-23T15:33:34.627Z,16.40